This week only. Pastebin PRO Accounts Christmas Special! Don't miss out!Want more features on Pastebin? Sign Up, it's FREE!
Guest

Untitled

By: a guest on Apr 18th, 2012  |  syntax: None  |  size: 41.79 KB  |  views: 23  |  expires: Never
download  |  raw  |  embed  |  report abuse  |  print
Text below is selected. Please press Ctrl+C to copy to your clipboard. (⌘+C on Mac)
  1. 16:50:39 T:2304  NOTICE: -----------------------------------------------------------------------
  2. 16:50:39 T:2304  NOTICE: Starting XBMC (11.0 Git:20120321-14feb09), Platform: Windows 7, 64-bit (WoW) Service Pack 1 build 7601. Built on Mar 21 2012 (compiler 1600)
  3. 16:50:39 T:2304  NOTICE: Intel(R) Core(TM) i5-2500K CPU @ 3.30GHz
  4. 16:50:39 T:2304  NOTICE: Desktop Resolution: 1920x1080 32Bit at 60Hz
  5. 16:50:39 T:2304  NOTICE: Running with restricted rights
  6. 16:50:39 T:2304  NOTICE: Aero is enabled
  7. 16:50:39 T:2304  NOTICE: special://xbmc/ is mapped to: G:\Program Files (x86)\XBMC
  8. 16:50:39 T:2304  NOTICE: special://xbmcbin/ is mapped to: G:\Program Files (x86)\XBMC
  9. 16:50:39 T:2304  NOTICE: special://masterprofile/ is mapped to: C:\Users\sgnl\AppData\Roaming\XBMC\userdata
  10. 16:50:39 T:2304  NOTICE: special://home/ is mapped to: C:\Users\sgnl\AppData\Roaming\XBMC\
  11. 16:50:39 T:2304  NOTICE: special://temp/ is mapped to: C:\Users\sgnl\AppData\Roaming\XBMC\cache
  12. 16:50:39 T:2304  NOTICE: The executable running is: G:\Program Files (x86)\XBMC\XBMC.exe
  13. 16:50:39 T:2304  NOTICE: Local hostname: pulsecode
  14. 16:50:39 T:2304  NOTICE: Log File is located: C:\Users\sgnl\AppData\Roaming\XBMC\xbmc.log
  15. 16:50:39 T:2304  NOTICE: -----------------------------------------------------------------------
  16. 16:50:39 T:2304  NOTICE: Setup SDL
  17. 16:50:40 T:2304  NOTICE: Found screen: Generic PnP Monitor on NVIDIA GeForce GTX 560 Ti  , adapter 0.
  18. 16:50:40 T:2304  NOTICE: Found screen: Generic PnP Monitor on NVIDIA GeForce GTX 560 Ti  , adapter 1.
  19. 16:50:40 T:2304  NOTICE: Primary mode: 1920x1080 @ 60.00 - Full Screen
  20. 16:50:40 T:2304  NOTICE: Secondary mode: 1280x1024 @ 60.00 - Full Screen #2
  21. 16:50:40 T:2304  NOTICE: Additional mode: 640x480 @ 59.94 - Full Screen
  22. 16:50:40 T:2304  NOTICE: Additional mode: 640x480 @ 60.00 - Full Screen
  23. 16:50:40 T:2304  NOTICE: Additional mode: 640x480 @ 72.00 - Full Screen
  24. 16:50:40 T:2304  NOTICE: Additional mode: 640x480 @ 75.00 - Full Screen
  25. 16:50:40 T:2304  NOTICE: Additional mode: 720x480 @ 60.00 - Full Screen
  26. 16:50:40 T:2304  NOTICE: Additional mode: 720x480 @ 59.94 - Full Screen
  27. 16:50:40 T:2304  NOTICE: Additional mode: 720x576 @ 50.00 - Full Screen
  28. 16:50:40 T:2304  NOTICE: Additional mode: 800x600 @ 56.00 - Full Screen
  29. 16:50:40 T:2304  NOTICE: Additional mode: 800x600 @ 60.00 - Full Screen
  30. 16:50:40 T:2304  NOTICE: Additional mode: 800x600 @ 72.00 - Full Screen
  31. 16:50:40 T:2304  NOTICE: Additional mode: 800x600 @ 75.00 - Full Screen
  32. 16:50:40 T:2304  NOTICE: Additional mode: 1024x768 @ 60.00 - Full Screen
  33. 16:50:40 T:2304  NOTICE: Additional mode: 1024x768 @ 70.00 - Full Screen
  34. 16:50:40 T:2304  NOTICE: Additional mode: 1024x768 @ 75.00 - Full Screen
  35. 16:50:40 T:2304  NOTICE: Additional mode: 1152x864 @ 75.00 - Full Screen
  36. 16:50:40 T:2304  NOTICE: Additional mode: 1176x664 @ 50.00 - Full Screen
  37. 16:50:40 T:2304  NOTICE: Previous line repeats 2 times.
  38. 16:50:40 T:2304  NOTICE: Additional mode: 1176x664 @ 60.00 - Full Screen
  39. 16:50:40 T:2304  NOTICE: Previous line repeats 2 times.
  40. 16:50:40 T:2304  NOTICE: Additional mode: 1176x664 @ 59.94 - Full Screen
  41. 16:50:40 T:2304  NOTICE: Previous line repeats 2 times.
  42. 16:50:40 T:2304  NOTICE: Additional mode: 1280x720 @ 60.00 - Full Screen
  43. 16:50:40 T:2304  NOTICE: Additional mode: 1280x720 @ 59.94 - Full Screen
  44. 16:50:40 T:2304  NOTICE: Additional mode: 1280x720 @ 50.00 - Full Screen
  45. 16:50:40 T:2304  NOTICE: Additional mode: 1280x768 @ 60.00 - Full Screen
  46. 16:50:40 T:2304  NOTICE: Previous line repeats 2 times.
  47. 16:50:40 T:2304  NOTICE: Additional mode: 1280x800 @ 60.00 - Full Screen
  48. 16:50:40 T:2304  NOTICE: Previous line repeats 2 times.
  49. 16:50:40 T:2304  NOTICE: Additional mode: 1280x960 @ 60.00 - Full Screen
  50. 16:50:40 T:2304  NOTICE: Additional mode: 1280x1024 @ 60.00 - Full Screen
  51. 16:50:40 T:2304  NOTICE: Additional mode: 1280x1024 @ 75.00 - Full Screen
  52. 16:50:40 T:2304  NOTICE: Additional mode: 1360x768 @ 60.00 - Full Screen
  53. 16:50:40 T:2304  NOTICE: Previous line repeats 2 times.
  54. 16:50:40 T:2304  NOTICE: Additional mode: 1366x768 @ 60.00 - Full Screen
  55. 16:50:40 T:2304  NOTICE: Additional mode: 1600x900 @ 59.94 - Full Screen
  56. 16:50:40 T:2304  NOTICE: Additional mode: 1600x900 @ 60.00 - Full Screen
  57. 16:50:40 T:2304  NOTICE: Additional mode: 1600x900 @ 59.94 - Full Screen
  58. 16:50:40 T:2304  NOTICE: Additional mode: 1600x900 @ 60.00 - Full Screen
  59. 16:50:40 T:2304  NOTICE: Additional mode: 1600x900 @ 59.94 - Full Screen
  60. 16:50:40 T:2304  NOTICE: Additional mode: 1600x900 @ 60.00 - Full Screen
  61. 16:50:40 T:2304  NOTICE: Additional mode: 1600x1024 @ 59.94 - Full Screen
  62. 16:50:40 T:2304  NOTICE: Additional mode: 1600x1024 @ 60.00 - Full Screen
  63. 16:50:40 T:2304  NOTICE: Additional mode: 1600x1024 @ 59.94 - Full Screen
  64. 16:50:40 T:2304  NOTICE: Additional mode: 1600x1024 @ 60.00 - Full Screen
  65. 16:50:40 T:2304  NOTICE: Additional mode: 1600x1024 @ 59.94 - Full Screen
  66. 16:50:40 T:2304  NOTICE: Additional mode: 1600x1024 @ 60.00 - Full Screen
  67. 16:50:40 T:2304  NOTICE: Additional mode: 1600x1200 @ 60.00 - Full Screen
  68. 16:50:40 T:2304  NOTICE: Additional mode: 1680x1050 @ 59.94 - Full Screen
  69. 16:50:40 T:2304  NOTICE: Additional mode: 1680x1050 @ 60.00 - Full Screen
  70. 16:50:40 T:2304  NOTICE: Additional mode: 1768x992 @ 25.00i - Full Screen
  71. 16:50:40 T:2304  NOTICE: Previous line repeats 2 times.
  72. 16:50:40 T:2304  NOTICE: Additional mode: 1768x992 @ 30.00i - Full Screen
  73. 16:50:40 T:2304  NOTICE: Previous line repeats 2 times.
  74. 16:50:40 T:2304  NOTICE: Additional mode: 1768x992 @ 29.97i - Full Screen
  75. 16:50:40 T:2304  NOTICE: Previous line repeats 2 times.
  76. 16:50:40 T:2304  NOTICE: Additional mode: 1920x1080 @ 60.00 - Full Screen
  77. 16:50:40 T:2304  NOTICE: Additional mode: 1920x1080 @ 59.94 - Full Screen
  78. 16:50:40 T:2304  NOTICE: Additional mode: 1920x1080 @ 30.00i - Full Screen
  79. 16:50:40 T:2304  NOTICE: Additional mode: 1920x1080 @ 29.97i - Full Screen
  80. 16:50:40 T:2304  NOTICE: Additional mode: 1920x1080 @ 25.00i - Full Screen
  81. 16:50:40 T:2304  NOTICE: Additional mode: 1920x1080 @ 50.00 - Full Screen
  82. 16:50:40 T:2304  NOTICE: Additional mode: 1440x900 @ 60.00 - Full Screen
  83. 16:50:40 T:2304  NOTICE: Additional mode: 1280x1024 @ 60.00 - Full Screen #2
  84. 16:50:40 T:2304  NOTICE: Additional mode: 1280x1024 @ 75.00 - Full Screen #2
  85. 16:50:40 T:2304  NOTICE: Additional mode: 640x480 @ 60.00 - Full Screen #2
  86. 16:50:40 T:2304  NOTICE: Additional mode: 640x480 @ 72.00 - Full Screen #2
  87. 16:50:40 T:2304  NOTICE: Additional mode: 640x480 @ 75.00 - Full Screen #2
  88. 16:50:40 T:2304  NOTICE: Additional mode: 640x480 @ 59.94 - Full Screen #2
  89. 16:50:40 T:2304  NOTICE: Additional mode: 720x480 @ 56.00 - Full Screen #2
  90. 16:50:40 T:2304  NOTICE: Previous line repeats 2 times.
  91. 16:50:40 T:2304  NOTICE: Additional mode: 720x480 @ 60.00 - Full Screen #2
  92. 16:50:40 T:2304  NOTICE: Previous line repeats 2 times.
  93. 16:50:40 T:2304  NOTICE: Additional mode: 720x480 @ 72.00 - Full Screen #2
  94. 16:50:40 T:2304  NOTICE: Previous line repeats 2 times.
  95. 16:50:40 T:2304  NOTICE: Additional mode: 720x480 @ 75.00 - Full Screen #2
  96. 16:50:40 T:2304  NOTICE: Previous line repeats 2 times.
  97. 16:50:40 T:2304  NOTICE: Additional mode: 720x576 @ 56.00 - Full Screen #2
  98. 16:50:40 T:2304  NOTICE: Previous line repeats 2 times.
  99. 16:50:40 T:2304  NOTICE: Additional mode: 720x576 @ 60.00 - Full Screen #2
  100. 16:50:40 T:2304  NOTICE: Previous line repeats 2 times.
  101. 16:50:40 T:2304  NOTICE: Additional mode: 720x576 @ 72.00 - Full Screen #2
  102. 16:50:40 T:2304  NOTICE: Previous line repeats 2 times.
  103. 16:50:40 T:2304  NOTICE: Additional mode: 720x576 @ 75.00 - Full Screen #2
  104. 16:50:40 T:2304  NOTICE: Previous line repeats 2 times.
  105. 16:50:40 T:2304  NOTICE: Additional mode: 800x600 @ 56.00 - Full Screen #2
  106. 16:50:40 T:2304  NOTICE: Additional mode: 800x600 @ 60.00 - Full Screen #2
  107. 16:50:40 T:2304  NOTICE: Additional mode: 800x600 @ 72.00 - Full Screen #2
  108. 16:50:40 T:2304  NOTICE: Additional mode: 800x600 @ 75.00 - Full Screen #2
  109. 16:50:40 T:2304  NOTICE: Additional mode: 1024x768 @ 60.00 - Full Screen #2
  110. 16:50:40 T:2304  NOTICE: Additional mode: 1024x768 @ 70.00 - Full Screen #2
  111. 16:50:40 T:2304  NOTICE: Additional mode: 1024x768 @ 75.00 - Full Screen #2
  112. 16:50:40 T:2304  NOTICE: Additional mode: 1152x864 @ 75.00 - Full Screen #2
  113. 16:50:40 T:2304  NOTICE: Additional mode: 1280x720 @ 75.00 - Full Screen #2
  114. 16:50:40 T:2304  NOTICE: Additional mode: 1280x720 @ 59.94 - Full Screen #2
  115. 16:50:40 T:2304  NOTICE: Additional mode: 1280x720 @ 60.00 - Full Screen #2
  116. 16:50:40 T:2304  NOTICE: Additional mode: 1280x768 @ 60.00 - Full Screen #2
  117. 16:50:40 T:2304  NOTICE: Previous line repeats 2 times.
  118. 16:50:40 T:2304  NOTICE: Additional mode: 1280x768 @ 75.00 - Full Screen #2
  119. 16:50:40 T:2304  NOTICE: Previous line repeats 2 times.
  120. 16:50:40 T:2304  NOTICE: Additional mode: 1280x800 @ 60.00 - Full Screen #2
  121. 16:50:40 T:2304  NOTICE: Previous line repeats 2 times.
  122. 16:50:40 T:2304  NOTICE: Additional mode: 1280x800 @ 75.00 - Full Screen #2
  123. 16:50:40 T:2304  NOTICE: Previous line repeats 2 times.
  124. 16:50:40 T:2304  NOTICE: Additional mode: 1280x960 @ 60.00 - Full Screen #2
  125. 16:50:40 T:2304  NOTICE: Previous line repeats 2 times.
  126. 16:50:40 T:2304  NOTICE: Additional mode: 1280x960 @ 75.00 - Full Screen #2
  127. 16:50:40 T:2304  NOTICE: Previous line repeats 2 times.
  128. 16:50:40 T:2304  NOTICE: load settings...
  129. 16:50:40 T:2304  NOTICE: special://profile/ is mapped to: special://masterprofile/
  130. 16:50:40 T:2304  NOTICE: loading special://masterprofile/guisettings.xml
  131. 16:50:40 T:2304  NOTICE: Getting hardware information now...
  132. 16:50:40 T:2304  NOTICE: Checking resolution 11
  133. 16:50:40 T:2304  NOTICE: Loading player core factory settings from special://xbmc/system/playercorefactory.xml.
  134. 16:50:40 T:2304  NOTICE: Loaded playercorefactory configuration
  135. 16:50:40 T:2304  NOTICE: Loading player core factory settings from special://masterprofile/playercorefactory.xml.
  136. 16:50:40 T:2304  NOTICE: special://masterprofile/playercorefactory.xml does not exist. Skipping.
  137. 16:50:40 T:2304  NOTICE: No settings file to load (special://xbmc/system/advancedsettings.xml)
  138. 16:50:40 T:2304  NOTICE: No settings file to load (special://masterprofile/advancedsettings.xml)
  139. 16:50:40 T:2304  NOTICE: Default DVD Player: dvdplayer
  140. 16:50:40 T:2304  NOTICE: Default Video Player: dvdplayer
  141. 16:50:40 T:2304  NOTICE: Default Audio Player: paplayer
  142. 16:50:40 T:2304  NOTICE: Disabled debug logging due to GUI setting. Level 0.
  143. 16:50:40 T:2304  NOTICE: Log level changed to 0
  144. 16:50:40 T:2304  NOTICE: Loading media sources from special://masterprofile/sources.xml
  145. 16:50:40 T:2304  NOTICE: initializing playlistplayer
  146. 16:50:40 T:2304  NOTICE: DONE initializing playlistplayer
  147. 16:50:40 T:2304  NOTICE: initialize done
  148. 16:50:40 T:2304  NOTICE: Running the application...
  149. 16:50:40 T:2304  NOTICE: ES: Starting event server
  150. 16:50:40 T:3908  NOTICE: ES: Starting UDP Event server on 0.0.0.0:9777
  151. 16:50:40 T:3908  NOTICE: UDP: Listening on port 9777
  152. 16:50:40 T:2304   ERROR: Control 1 in window 10099 has been asked to focus, but it can't
  153. 16:50:40 T:992  NOTICE: -->Python Interpreter Initialized<--
  154. 16:50:40 T:3928  NOTICE: -->Python Interpreter Initialized<--
  155. 16:50:40 T:4400  NOTICE: -->Python Interpreter Initialized<--
  156. 16:50:40 T:3024  NOTICE: -->Python Interpreter Initialized<--
  157. 16:50:40 T:992  NOTICE: Artwork Downloader: ## Service - Run at startup: False
  158. 16:50:40 T:992  NOTICE: Artwork Downloader: ## Service - Delayed startup: -- minutes
  159. 16:50:40 T:992  NOTICE: Artwork Downloader: ## Service - Run as service: False
  160. 16:50:40 T:992  NOTICE: Artwork Downloader: ## Service - Time: 00:00
  161. 16:50:40 T:3928   ERROR: C:\Users\sgnl\AppData\Roaming\XBMC\addons\othrayte-script.TraktUtilities-d49fafa\nbhttpconnection.py:22: DeprecationWarning: the sha module is deprecated; use the hashlib module instead
  162.                                               import sha
  163. 16:50:40 T:4400  NOTICE:  StorageServer Module loaded RUN
  164. 16:50:40 T:4400  NOTICE: StorageClient-0.9.2 Starting server
  165. 16:50:40 T:4400  NOTICE: StorageServer-0.9.2 Storage Server starting C:\Users\sgnl\AppData\Roaming\XBMC\userdata\Database\commoncache.db
  166. 16:50:40 T:3928  NOTICE: Trakt Utilities: service: script.TraktUtilities - version: 0.6.5
  167. 16:50:40 T:3928  NOTICE: Trakt Utilities: trakt json url: /account/test/48dfcb4813134da82152984e8c4f329bc8b8b46a
  168. 16:50:41 T:3852  NOTICE: Trakt Utilities: [Notification Service] Waiting~
  169. 16:50:41 T:3852  NOTICE: Trakt Utilities: [Notification Service] Message so far:
  170. 16:50:42 T:5744   ERROR: CRemoteControl::Connect - failed to connect
  171. 16:50:42 T:3852  NOTICE: Trakt Utilities: [Notification Service] Message so far:
  172. 16:50:42 T:3852  NOTICE: Trakt Utilities: [Notification Service] Message so far:
  173. 16:50:42 T:3852  NOTICE: Trakt Utilities: [Notification Service] Message so far:
  174. 16:50:42 T:3852  NOTICE: Trakt Utilities: [Notification Service] Message so far:
  175. 16:50:42 T:3852  NOTICE: Trakt Utilities: [Notification Service] Message so far:
  176. 16:50:43 T:3852  NOTICE: Trakt Utilities: [Notification Service] Message so far:
  177. 16:50:43 T:3852  NOTICE: Trakt Utilities: [Notification Service] Message so far:
  178. 16:50:43 T:3852  NOTICE: Trakt Utilities: [Notification Service] Message so far:
  179. 16:50:43 T:3852  NOTICE: Trakt Utilities: [Notification Service] Message so far:
  180. 16:50:43 T:2304   ERROR: Control 1 in window 10099 has been asked to focus, but it can't
  181. 16:50:43 T:3852  NOTICE: Trakt Utilities: [Notification Service] Message so far:
  182. 16:50:44 T:3852  NOTICE: Trakt Utilities: [Notification Service] Message so far:
  183. 16:50:44 T:3852  NOTICE: Trakt Utilities: [Notification Service] Message so far:
  184. 16:50:44 T:3852  NOTICE: Trakt Utilities: [Notification Service] Message so far:
  185. 16:50:44 T:3852  NOTICE: Trakt Utilities: [Notification Service] Message so far:
  186. 16:50:44 T:3852  NOTICE: Trakt Utilities: [Notification Service] Message so far:
  187. 16:50:45 T:2304   ERROR: Control 1 in window 10099 has been asked to focus, but it can't
  188. 16:50:45 T:3852  NOTICE: Trakt Utilities: [Notification Service] Message so far:
  189. 16:50:45 T:3852  NOTICE: Trakt Utilities: [Notification Service] Message so far:
  190. 16:50:45 T:3852  NOTICE: Trakt Utilities: [Notification Service] Message so far:
  191. 16:50:45 T:3852  NOTICE: Trakt Utilities: [Notification Service] Message so far:
  192. 16:50:45 T:3852  NOTICE: Trakt Utilities: [Notification Service] Message so far:
  193. 16:50:46 T:3852  NOTICE: Trakt Utilities: [Notification Service] Message so far:
  194. 16:50:46 T:3852  NOTICE: Trakt Utilities: [Notification Service] Message so far:
  195. 16:50:46 T:3852  NOTICE: Trakt Utilities: [Notification Service] Message so far:
  196. 16:50:46 T:3852  NOTICE: Trakt Utilities: [Notification Service] Message so far:
  197. 16:50:46 T:3852  NOTICE: Trakt Utilities: [Notification Service] Message so far:
  198. 16:50:47 T:3852  NOTICE: Trakt Utilities: [Notification Service] Message so far:
  199. 16:50:47 T:3852  NOTICE: Trakt Utilities: [Notification Service] Message so far:
  200. 16:50:47 T:3852  NOTICE: Trakt Utilities: [Notification Service] Message so far:
  201. 16:50:47 T:3852  NOTICE: Trakt Utilities: [Notification Service] Message so far:
  202. 16:50:47 T:3852  NOTICE: Trakt Utilities: [Notification Service] Message so far:
  203. 16:50:48 T:3852  NOTICE: Trakt Utilities: [Notification Service] Message so far:
  204. 16:50:48 T:3852  NOTICE: Trakt Utilities: [Notification Service] Message so far:
  205. 16:50:48 T:3852  NOTICE: Trakt Utilities: [Notification Service] Message so far:
  206. 16:50:48 T:3852  NOTICE: Trakt Utilities: [Notification Service] Message so far:
  207. 16:50:48 T:3852  NOTICE: Trakt Utilities: [Notification Service] Message so far:
  208. 16:50:49 T:3852  NOTICE: Trakt Utilities: [Notification Service] Message so far:
  209. 16:50:49 T:3852  NOTICE: Trakt Utilities: [Notification Service] Message so far:
  210. 16:50:49 T:3852  NOTICE: Trakt Utilities: [Notification Service] Message so far:
  211. 16:50:49 T:3852  NOTICE: Trakt Utilities: [Notification Service] Message so far:
  212. 16:50:49 T:3852  NOTICE: Trakt Utilities: [Notification Service] Message so far:
  213. 16:50:50 T:3852  NOTICE: Trakt Utilities: [Notification Service] Message so far:
  214. 16:50:50 T:3852  NOTICE: Trakt Utilities: [Notification Service] Message so far:
  215. 16:50:50 T:3852  NOTICE: Trakt Utilities: [Notification Service] Message so far:
  216. 16:50:50 T:3852  NOTICE: Trakt Utilities: [Notification Service] Message so far:
  217. 16:50:50 T:3852  NOTICE: Trakt Utilities: [Notification Service] Message so far:
  218. 16:50:51 T:3852  NOTICE: Trakt Utilities: [Notification Service] Message so far:
  219. 16:50:51 T:3852  NOTICE: Trakt Utilities: [Notification Service] Message so far:
  220. 16:50:51 T:3852  NOTICE: Trakt Utilities: [Notification Service] Message so far:
  221. 16:50:51 T:3852  NOTICE: Trakt Utilities: [Notification Service] Message so far:
  222. 16:50:51 T:3852  NOTICE: Trakt Utilities: [Notification Service] Message so far:
  223. 16:50:52 T:3852  NOTICE: Trakt Utilities: [Notification Service] Message so far:
  224. 16:50:52 T:2304  NOTICE: DVDPlayer: Opening: G:\Downloads\New Visual\American Dad!\American.Dad.S07E16.HDTV.x264-LOL\American.Dad.S07E16.HDTV.x264-LOL.mp4
  225. 16:50:52 T:2304 WARNING: CDVDMessageQueue(player)::Put MSGQ_NOT_INITIALIZED
  226. 16:50:52 T:824  NOTICE: Creating InputStream
  227. 16:50:52 T:824  NOTICE: Creating Demuxer
  228. 16:50:52 T:824  NOTICE: Opening video stream: 0 source: 256
  229. 16:50:52 T:824  NOTICE: Creating video codec with codec id: 28
  230. 16:50:52 T:824  NOTICE: CDVDVideoCodecFFmpeg::Open() Using codec: H.264 / AVC / MPEG-4 AVC / MPEG-4 part 10
  231. 16:50:52 T:824  NOTICE: Creating video thread
  232. 16:50:52 T:824  NOTICE: Opening audio stream: 1 source: 256
  233. 16:50:52 T:824  NOTICE: Finding audio codec for: 86018
  234. 16:50:52 T:3420  NOTICE: running thread: video_thread
  235. 16:50:52 T:824  NOTICE: Creating audio thread
  236. 16:50:52 T:4300  NOTICE: running thread: CDVDPlayerAudio::Process()
  237. 16:50:52 T:824 WARNING: CDVDPlayer::CheckContinuity - wrapback of stream:2, prev:125125.000000, curr:41708.333333, diff:-83416.666667
  238. 16:50:52 T:4300  NOTICE: Creating audio device with codec id: 86018, channels: 2, sample rate: 48000, no pass-through
  239. 16:50:52 T:3852  NOTICE: Trakt Utilities: [Notification Service] Message so far:
  240. 16:50:52 T:3420  NOTICE:  fps: 23.976024, pwidth: 720, pheight: 404, dwidth: 720, dheight: 404
  241. 16:50:52 T:3420  NOTICE: Display resolution DESKTOP : 1920x1080 @ 60.00 - Full Screen (12)
  242. 16:50:52 T:3420  NOTICE: D3D: rendering method forced to DXVA2 processor
  243. 16:50:52 T:3852  NOTICE: Trakt Utilities: [Notification Service] Message so far:
  244. 16:50:52 T:3852  NOTICE: Trakt Utilities: [Notification Service] Message so far:
  245. 16:50:52 T:3852  NOTICE: Trakt Utilities: [Notification Service] Message so far:
  246. 16:50:53 T:3852  NOTICE: Trakt Utilities: [Notification Service] Message so far:
  247. 16:50:53 T:3852  NOTICE: Trakt Utilities: [Notification Service] Message so far:
  248. 16:50:53 T:3852  NOTICE: Trakt Utilities: [Notification Service] Message so far:
  249. 16:50:53 T:3852  NOTICE: Trakt Utilities: [Notification Service] Message so far:
  250. 16:50:53 T:3852  NOTICE: Trakt Utilities: [Notification Service] Message so far:
  251. 16:50:54 T:3852  NOTICE: Trakt Utilities: [Notification Service] Message so far:
  252. 16:50:54 T:3852  NOTICE: Trakt Utilities: [Notification Service] Message so far:
  253. 16:50:54 T:3852  NOTICE: Trakt Utilities: [Notification Service] Message so far:
  254. 16:50:54 T:3852  NOTICE: Trakt Utilities: [Notification Service] Message so far:
  255. 16:50:54 T:3852  NOTICE: Trakt Utilities: [Notification Service] Message so far:
  256. 16:50:55 T:3852  NOTICE: Trakt Utilities: [Notification Service] Message so far:
  257. 16:50:55 T:3852  NOTICE: Trakt Utilities: [Notification Service] Message so far:
  258. 16:50:55 T:3852  NOTICE: Trakt Utilities: [Notification Service] Message so far:
  259. 16:50:55 T:3852  NOTICE: Trakt Utilities: [Notification Service] Message so far:
  260. 16:50:55 T:2304   ERROR: Control 1 in window 10099 has been asked to focus, but it can't
  261. 16:50:55 T:3852  NOTICE: Trakt Utilities: [Notification Service] Message so far:
  262. 16:50:56 T:3852  NOTICE: Trakt Utilities: [Notification Service] Message so far:
  263. 16:50:56 T:3852  NOTICE: Trakt Utilities: [Notification Service] Message so far:
  264. 16:50:56 T:3852  NOTICE: Trakt Utilities: [Notification Service] Message so far:
  265. 16:50:56 T:3852  NOTICE: Trakt Utilities: [Notification Service] Message so far:
  266. 16:50:56 T:3852  NOTICE: Trakt Utilities: [Notification Service] Message so far:
  267. 16:50:57 T:3852  NOTICE: Trakt Utilities: [Notification Service] Message so far:
  268. 16:50:57 T:3852  NOTICE: Trakt Utilities: [Notification Service] Message so far:
  269. 16:50:57 T:3852  NOTICE: Trakt Utilities: [Notification Service] Message so far:
  270. 16:50:57 T:3852  NOTICE: Trakt Utilities: [Notification Service] Message so far:
  271. 16:50:57 T:3852  NOTICE: Trakt Utilities: [Notification Service] Message so far:
  272. 16:50:58 T:3852  NOTICE: Trakt Utilities: [Notification Service] Message so far:
  273. 16:50:58 T:3852  NOTICE: Trakt Utilities: [Notification Service] Message so far:
  274. 16:50:58 T:3852  NOTICE: Trakt Utilities: [Notification Service] Message so far:
  275. 16:50:58 T:3852  NOTICE: Trakt Utilities: [Notification Service] Message so far:
  276. 16:50:58 T:3852  NOTICE: Trakt Utilities: [Notification Service] Message so far:
  277. 16:50:59 T:3852  NOTICE: Trakt Utilities: [Notification Service] Message so far:
  278. 16:50:59 T:3852  NOTICE: Trakt Utilities: [Notification Service] Message so far:
  279. 16:50:59 T:3852  NOTICE: Trakt Utilities: [Notification Service] Message so far:
  280. 16:50:59 T:3852  NOTICE: Trakt Utilities: [Notification Service] Message so far:
  281. 16:50:59 T:3852  NOTICE: Trakt Utilities: [Notification Service] Message so far:
  282. 16:51:00 T:3852  NOTICE: Trakt Utilities: [Notification Service] Message so far:
  283. 16:51:00 T:3852  NOTICE: Trakt Utilities: [Notification Service] Message so far:
  284. 16:51:00 T:3852  NOTICE: Trakt Utilities: [Notification Service] Message so far:
  285. 16:51:00 T:3852  NOTICE: Trakt Utilities: [Notification Service] Message so far:
  286. 16:51:00 T:3852  NOTICE: Trakt Utilities: [Notification Service] Message so far:
  287. 16:51:01 T:3852  NOTICE: Trakt Utilities: [Notification Service] Message so far:
  288. 16:51:01 T:3852  NOTICE: Trakt Utilities: [Notification Service] Message so far:
  289. 16:51:01 T:3852  NOTICE: Trakt Utilities: [Notification Service] Message so far:
  290. 16:51:01 T:3852  NOTICE: Trakt Utilities: [Notification Service] Message so far:
  291. 16:51:01 T:3852  NOTICE: Trakt Utilities: [Notification Service] Message so far:
  292. 16:51:01 T:3852  NOTICE: Trakt Utilities: [NotificationService] ERROR: EOFError
  293. 16:51:02 T:3852  NOTICE: Trakt Utilities: [Notification Service] Waiting~
  294. 16:51:02 T:3852  NOTICE: Trakt Utilities: [Notification Service] Message so far:
  295. 16:51:03 T:3852  NOTICE: Trakt Utilities: [Notification Service] Message so far:
  296. 16:51:03 T:3852  NOTICE: Trakt Utilities: [Notification Service] Message so far:
  297. 16:51:03 T:3852  NOTICE: Trakt Utilities: [Notification Service] Message so far:
  298. 16:51:03 T:3852  NOTICE: Trakt Utilities: [Notification Service] Message so far:
  299. 16:51:03 T:3852  NOTICE: Trakt Utilities: [Notification Service] Message so far:
  300. 16:51:04 T:3852  NOTICE: Trakt Utilities: [Notification Service] Message so far:
  301. 16:51:04 T:3852  NOTICE: Trakt Utilities: [Notification Service] Message so far:
  302. 16:51:04 T:3852  NOTICE: Trakt Utilities: [Notification Service] Message so far:
  303. 16:51:04 T:3852  NOTICE: Trakt Utilities: [Notification Service] Message so far:
  304. 16:51:04 T:3852  NOTICE: Trakt Utilities: [Notification Service] Message so far:
  305. 16:51:05 T:3852  NOTICE: Trakt Utilities: [Notification Service] Message so far:
  306. 16:51:05 T:3852  NOTICE: Trakt Utilities: [Notification Service] Message so far:
  307. 16:51:05 T:3852  NOTICE: Trakt Utilities: [Notification Service] Message so far:
  308. 16:51:05 T:3852  NOTICE: Trakt Utilities: [Notification Service] Message so far:
  309. 16:51:05 T:3852  NOTICE: Trakt Utilities: [Notification Service] Message so far:
  310. 16:51:06 T:3852  NOTICE: Trakt Utilities: [Notification Service] Message so far:
  311. 16:51:06 T:3852  NOTICE: Trakt Utilities: [Notification Service] Message so far:
  312. 16:51:06 T:3852  NOTICE: Trakt Utilities: [Notification Service] Message so far:
  313. 16:51:06 T:3852  NOTICE: Trakt Utilities: [Notification Service] Message so far:
  314. 16:51:06 T:3852  NOTICE: Trakt Utilities: [Notification Service] Message so far:
  315. 16:51:07 T:3852  NOTICE: Trakt Utilities: [Notification Service] Message so far:
  316. 16:51:07 T:3852  NOTICE: Trakt Utilities: [Notification Service] Message so far:
  317. 16:51:07 T:3852  NOTICE: Trakt Utilities: [Notification Service] Message so far:
  318. 16:51:07 T:3852  NOTICE: Trakt Utilities: [Notification Service] Message so far:
  319. 16:51:07 T:3852  NOTICE: Trakt Utilities: [Notification Service] Message so far:
  320. 16:51:08 T:3852  NOTICE: Trakt Utilities: [Notification Service] Message so far:
  321. 16:51:08 T:3852  NOTICE: Trakt Utilities: [Notification Service] Message so far:
  322. 16:51:08 T:3852  NOTICE: Trakt Utilities: [Notification Service] Message so far:
  323. 16:51:08 T:3852  NOTICE: Trakt Utilities: [Notification Service] Message so far:
  324. 16:51:08 T:3852  NOTICE: Trakt Utilities: [Notification Service] Message so far:
  325. 16:51:09 T:3852  NOTICE: Trakt Utilities: [Notification Service] Message so far:
  326. 16:51:09 T:3852  NOTICE: Trakt Utilities: [Notification Service] Message so far:
  327. 16:51:09 T:3852  NOTICE: Trakt Utilities: [Notification Service] Message so far:
  328. 16:51:09 T:3852  NOTICE: Trakt Utilities: [Notification Service] Message so far:
  329. 16:51:09 T:3852  NOTICE: Trakt Utilities: [Notification Service] Message so far:
  330. 16:51:10 T:3852  NOTICE: Trakt Utilities: [Notification Service] Message so far:
  331. 16:51:10 T:3852  NOTICE: Trakt Utilities: [Notification Service] Message so far:
  332. 16:51:10 T:3852  NOTICE: Trakt Utilities: [Notification Service] Message so far:
  333. 16:51:10 T:3852  NOTICE: Trakt Utilities: [Notification Service] Message so far:
  334. 16:51:10 T:3852  NOTICE: Trakt Utilities: [Notification Service] Message so far:
  335. 16:51:11 T:3852  NOTICE: Trakt Utilities: [Notification Service] Message so far:
  336. 16:51:11 T:3852  NOTICE: Trakt Utilities: [Notification Service] Message so far:
  337. 16:51:11 T:3852  NOTICE: Trakt Utilities: [Notification Service] Message so far:
  338. 16:51:11 T:3852  NOTICE: Trakt Utilities: [Notification Service] Message so far:
  339. 16:51:11 T:3852  NOTICE: Trakt Utilities: [Notification Service] Message so far:
  340. 16:51:12 T:3852  NOTICE: Trakt Utilities: [Notification Service] Message so far:
  341. 16:51:12 T:3852  NOTICE: Trakt Utilities: [Notification Service] Message so far:
  342. 16:51:12 T:3852  NOTICE: Trakt Utilities: [Notification Service] Message so far:
  343. 16:51:12 T:3852  NOTICE: Trakt Utilities: [Notification Service] Message so far:
  344. 16:51:12 T:3852  NOTICE: Trakt Utilities: [Notification Service] Message so far:
  345. 16:51:13 T:3852  NOTICE: Trakt Utilities: [Notification Service] Message so far:
  346. 16:51:13 T:3852  NOTICE: Trakt Utilities: [Notification Service] Message so far:
  347. 16:51:13 T:3852  NOTICE: Trakt Utilities: [Notification Service] Message so far:
  348. 16:51:13 T:3852  NOTICE: Trakt Utilities: [Notification Service] Message so far:
  349. 16:51:13 T:3852  NOTICE: Trakt Utilities: [Notification Service] Message so far:
  350. 16:51:14 T:3852  NOTICE: Trakt Utilities: [Notification Service] Message so far:
  351. 16:51:14 T:3852  NOTICE: Trakt Utilities: [Notification Service] Message so far:
  352. 16:51:14 T:3852  NOTICE: Trakt Utilities: [Notification Service] Message so far:
  353. 16:51:14 T:3852  NOTICE: Trakt Utilities: [Notification Service] Message so far:
  354. 16:51:14 T:3852  NOTICE: Trakt Utilities: [Notification Service] Message so far:
  355. 16:51:15 T:3852  NOTICE: Trakt Utilities: [Notification Service] Message so far:
  356. 16:51:15 T:3852  NOTICE: Trakt Utilities: [Notification Service] Message so far:
  357. 16:51:15 T:3852  NOTICE: Trakt Utilities: [Notification Service] Message so far:
  358. 16:51:15 T:3852  NOTICE: Trakt Utilities: [Notification Service] Message so far:
  359. 16:51:15 T:3852  NOTICE: Trakt Utilities: [Notification Service] Message so far:
  360. 16:51:16 T:3852  NOTICE: Trakt Utilities: [Notification Service] Message so far:
  361. 16:51:16 T:3852  NOTICE: Trakt Utilities: [Notification Service] Message so far:
  362. 16:51:16 T:3852  NOTICE: Trakt Utilities: [Notification Service] Message so far:
  363. 16:51:16 T:3852  NOTICE: Trakt Utilities: [Notification Service] Message so far:
  364. 16:51:16 T:3852  NOTICE: Trakt Utilities: [Notification Service] Message so far:
  365. 16:51:17 T:3852  NOTICE: Trakt Utilities: [Notification Service] Message so far:
  366. 16:51:17 T:3852  NOTICE: Trakt Utilities: [Notification Service] Message so far:
  367. 16:51:17 T:3852  NOTICE: Trakt Utilities: [Notification Service] Message so far:
  368. 16:51:17 T:3852  NOTICE: Trakt Utilities: [Notification Service] Message so far:
  369. 16:51:17 T:3852  NOTICE: Trakt Utilities: [Notification Service] Message so far:
  370. 16:51:18 T:3852  NOTICE: Trakt Utilities: [Notification Service] Message so far:
  371. 16:51:18 T:3852  NOTICE: Trakt Utilities: [Notification Service] Message so far:
  372. 16:51:18 T:3852  NOTICE: Trakt Utilities: [Notification Service] Message so far:
  373. 16:51:18 T:3852  NOTICE: Trakt Utilities: [Notification Service] Message so far:
  374. 16:51:18 T:3852  NOTICE: Trakt Utilities: [Notification Service] Message so far:
  375. 16:51:19 T:3852  NOTICE: Trakt Utilities: [Notification Service] Message so far:
  376. 16:51:19 T:3852  NOTICE: Trakt Utilities: [Notification Service] Message so far:
  377. 16:51:19 T:3852  NOTICE: Trakt Utilities: [Notification Service] Message so far:
  378. 16:51:19 T:3852  NOTICE: Trakt Utilities: [Notification Service] Message so far:
  379. 16:51:19 T:3852  NOTICE: Trakt Utilities: [Notification Service] Message so far:
  380. 16:51:20 T:3852  NOTICE: Trakt Utilities: [Notification Service] Message so far:
  381. 16:51:20 T:3852  NOTICE: Trakt Utilities: [Notification Service] Message so far:
  382. 16:51:20 T:3852  NOTICE: Trakt Utilities: [Notification Service] Message so far:
  383. 16:51:20 T:3852  NOTICE: Trakt Utilities: [Notification Service] Message so far:
  384. 16:51:20 T:3852  NOTICE: Trakt Utilities: [Notification Service] Message so far:
  385. 16:51:21 T:3852  NOTICE: Trakt Utilities: [Notification Service] Message so far:
  386. 16:51:21 T:3852  NOTICE: Trakt Utilities: [Notification Service] Message so far:
  387. 16:51:21 T:3852  NOTICE: Trakt Utilities: [Notification Service] Message so far:
  388. 16:51:21 T:3852  NOTICE: Trakt Utilities: [Notification Service] Message so far:
  389. 16:51:21 T:3852  NOTICE: Trakt Utilities: [Notification Service] Message so far:
  390. 16:51:22 T:3852  NOTICE: Trakt Utilities: [Notification Service] Message so far:
  391. 16:51:22 T:3852  NOTICE: Trakt Utilities: [Notification Service] Message so far:
  392. 16:51:22 T:3852  NOTICE: Trakt Utilities: [Notification Service] Message so far:
  393. 16:51:22 T:3852  NOTICE: Trakt Utilities: [Notification Service] Message so far:
  394. 16:51:22 T:3852  NOTICE: Trakt Utilities: [Notification Service] Message so far:
  395. 16:51:22 T:3852  NOTICE: Trakt Utilities: [NotificationService] ERROR: EOFError
  396. 16:51:23 T:3852  NOTICE: Trakt Utilities: [Notification Service] Waiting~
  397. 16:51:23 T:3852  NOTICE: Trakt Utilities: [Notification Service] Message so far:
  398. 16:51:24 T:3852  NOTICE: Trakt Utilities: [Notification Service] Message so far:
  399. 16:51:24 T:3852  NOTICE: Trakt Utilities: [Notification Service] Message so far:
  400. 16:51:24 T:3852  NOTICE: Trakt Utilities: [Notification Service] Message so far:
  401. 16:51:24 T:3852  NOTICE: Trakt Utilities: [Notification Service] Message so far:
  402. 16:51:24 T:3852  NOTICE: Trakt Utilities: [Notification Service] Message so far:
  403. 16:51:25 T:3852  NOTICE: Trakt Utilities: [Notification Service] Message so far:
  404. 16:51:25 T:3852  NOTICE: Trakt Utilities: [Notification Service] Message so far:
  405. 16:51:25 T:3852  NOTICE: Trakt Utilities: [Notification Service] Message so far:
  406. 16:51:25 T:3852  NOTICE: Trakt Utilities: [Notification Service] Message so far:
  407. 16:51:25 T:3852  NOTICE: Trakt Utilities: [Notification Service] Message so far:
  408. 16:51:26 T:3852  NOTICE: Trakt Utilities: [Notification Service] Message so far:
  409. 16:51:26 T:3852  NOTICE: Trakt Utilities: [Notification Service] Message so far:
  410. 16:51:26 T:3852  NOTICE: Trakt Utilities: [Notification Service] Message so far:
  411. 16:51:26 T:3852  NOTICE: Trakt Utilities: [Notification Service] Message so far:
  412. 16:51:26 T:3852  NOTICE: Trakt Utilities: [Notification Service] Message so far:
  413. 16:51:27 T:3852  NOTICE: Trakt Utilities: [Notification Service] Message so far:
  414. 16:51:27 T:3852  NOTICE: Trakt Utilities: [Notification Service] Message so far:
  415. 16:51:27 T:3852  NOTICE: Trakt Utilities: [Notification Service] Message so far:
  416. 16:51:27 T:3852  NOTICE: Trakt Utilities: [Notification Service] Message so far:
  417. 16:51:27 T:3852  NOTICE: Trakt Utilities: [Notification Service] Message so far:
  418. 16:51:28 T:3852  NOTICE: Trakt Utilities: [Notification Service] Message so far:
  419. 16:51:28 T:3852  NOTICE: Trakt Utilities: [Notification Service] Message so far:
  420. 16:51:28 T:3852  NOTICE: Trakt Utilities: [Notification Service] Message so far:
  421. 16:51:28 T:3852  NOTICE: Trakt Utilities: [Notification Service] Message so far:
  422. 16:51:28 T:3852  NOTICE: Trakt Utilities: [Notification Service] Message so far:
  423. 16:51:29 T:3852  NOTICE: Trakt Utilities: [Notification Service] Message so far:
  424. 16:51:29 T:3852  NOTICE: Trakt Utilities: [Notification Service] Message so far:
  425. 16:51:29 T:3852  NOTICE: Trakt Utilities: [Notification Service] Message so far:
  426. 16:51:29 T:3852  NOTICE: Trakt Utilities: [Notification Service] Message so far:
  427. 16:51:29 T:3852  NOTICE: Trakt Utilities: [Notification Service] Message so far:
  428. 16:51:30 T:3852  NOTICE: Trakt Utilities: [Notification Service] Message so far:
  429. 16:51:30 T:3852  NOTICE: Trakt Utilities: [Notification Service] Message so far:
  430. 16:51:30 T:3852  NOTICE: Trakt Utilities: [Notification Service] Message so far:
  431. 16:51:30 T:3852  NOTICE: Trakt Utilities: [Notification Service] Message so far:
  432. 16:51:30 T:3852  NOTICE: Trakt Utilities: [Notification Service] Message so far:
  433. 16:51:31 T:3852  NOTICE: Trakt Utilities: [Notification Service] Message so far:
  434. 16:51:31 T:3852  NOTICE: Trakt Utilities: [Notification Service] Message so far:
  435. 16:51:31 T:3852  NOTICE: Trakt Utilities: [Notification Service] Message so far:
  436. 16:51:31 T:3852  NOTICE: Trakt Utilities: [Notification Service] Message so far:
  437. 16:51:31 T:3852  NOTICE: Trakt Utilities: [Notification Service] Message so far:
  438. 16:51:32 T:3852  NOTICE: Trakt Utilities: [Notification Service] Message so far:
  439. 16:51:32 T:3852  NOTICE: Trakt Utilities: [Notification Service] Message so far:
  440. 16:51:32 T:3852  NOTICE: Trakt Utilities: [Notification Service] Message so far:
  441. 16:51:32 T:3852  NOTICE: Trakt Utilities: [Notification Service] Message so far:
  442. 16:51:32 T:3852  NOTICE: Trakt Utilities: [Notification Service] Message so far:
  443. 16:51:33 T:3852  NOTICE: Trakt Utilities: [Notification Service] Message so far:
  444. 16:51:33 T:3852  NOTICE: Trakt Utilities: [Notification Service] Message so far:
  445. 16:51:33 T:3852  NOTICE: Trakt Utilities: [Notification Service] Message so far:
  446. 16:51:33 T:3852  NOTICE: Trakt Utilities: [Notification Service] Message so far:
  447. 16:51:33 T:3852  NOTICE: Trakt Utilities: [Notification Service] Message so far:
  448. 16:51:34 T:3852  NOTICE: Trakt Utilities: [Notification Service] Message so far:
  449. 16:51:34 T:3852  NOTICE: Trakt Utilities: [Notification Service] Message so far:
  450. 16:51:34 T:3852  NOTICE: Trakt Utilities: [Notification Service] Message so far:
  451. 16:51:34 T:3852  NOTICE: Trakt Utilities: [Notification Service] Message so far:
  452. 16:51:34 T:3852  NOTICE: Trakt Utilities: [Notification Service] Message so far:
  453. 16:51:35 T:3852  NOTICE: Trakt Utilities: [Notification Service] Message so far:
  454. 16:51:35 T:3852  NOTICE: Trakt Utilities: [Notification Service] Message so far:
  455. 16:51:35 T:3852  NOTICE: Trakt Utilities: [Notification Service] Message so far:
  456. 16:51:35 T:3852  NOTICE: Trakt Utilities: [Notification Service] Message so far:
  457. 16:51:35 T:3852  NOTICE: Trakt Utilities: [Notification Service] Message so far:
  458. 16:51:36 T:3852  NOTICE: Trakt Utilities: [Notification Service] Message so far:
  459. 16:51:36 T:3852  NOTICE: Trakt Utilities: [Notification Service] Message so far:
  460. 16:51:36 T:3852  NOTICE: Trakt Utilities: [Notification Service] Message so far:
  461. 16:51:36 T:3852  NOTICE: Trakt Utilities: [Notification Service] Message so far:
  462. 16:51:36 T:3852  NOTICE: Trakt Utilities: [Notification Service] Message so far:
  463. 16:51:37 T:3852  NOTICE: Trakt Utilities: [Notification Service] Message so far:
  464. 16:51:37 T:3852  NOTICE: Trakt Utilities: [Notification Service] Message so far:
  465. 16:51:37 T:3852  NOTICE: Trakt Utilities: [Notification Service] Message so far:
  466. 16:51:37 T:3852  NOTICE: Trakt Utilities: [Notification Service] Message so far:
  467. 16:51:37 T:3852  NOTICE: Trakt Utilities: [Notification Service] Message so far:
  468. 16:51:38 T:3852  NOTICE: Trakt Utilities: [Notification Service] Message so far:
  469. 16:51:38 T:3852  NOTICE: Trakt Utilities: [Notification Service] Message so far:
  470. 16:51:38 T:3852  NOTICE: Trakt Utilities: [Notification Service] Message so far:
  471. 16:51:38 T:3852  NOTICE: Trakt Utilities: [Notification Service] Message so far:
  472. 16:51:38 T:3852  NOTICE: Trakt Utilities: [Notification Service] Message so far:
  473. 16:51:39 T:2304   ERROR: Control 1 in window 10099 has been asked to focus, but it can't
  474. 16:51:39 T:3852  NOTICE: Trakt Utilities: [Notification Service] Message so far:
  475. 16:51:39 T:3852  NOTICE: Trakt Utilities: [Notification Service] Message so far:
  476. 16:51:39 T:3852  NOTICE: Trakt Utilities: [Notification Service] Message so far:
  477. 16:51:39 T:3852  NOTICE: Trakt Utilities: [Notification Service] Message so far:
  478. 16:51:39 T:3852  NOTICE: Trakt Utilities: [Notification Service] Message so far:
  479. 16:51:40 T:3852  NOTICE: Trakt Utilities: [Notification Service] Message so far:
  480. 16:51:40 T:3852  NOTICE: Trakt Utilities: [Notification Service] Message so far:
  481. 16:51:40 T:3852  NOTICE: Trakt Utilities: [Notification Service] Message so far:
  482. 16:51:40 T:3852  NOTICE: Trakt Utilities: [Notification Service] Message so far:
  483. 16:51:40 T:3852  NOTICE: Trakt Utilities: [Notification Service] Message so far:
  484. 16:51:41 T:3852  NOTICE: Trakt Utilities: [Notification Service] Message so far:
  485. 16:51:41 T:3852  NOTICE: Trakt Utilities: [Notification Service] Message so far:
  486. 16:51:41 T:3852  NOTICE: Trakt Utilities: [Notification Service] Message so far:
  487. 16:51:41 T:3852  NOTICE: Trakt Utilities: [Notification Service] Message so far:
  488. 16:51:41 T:3852  NOTICE: Trakt Utilities: [Notification Service] Message so far:
  489. 16:51:42 T:3852  NOTICE: Trakt Utilities: [Notification Service] Message so far:
  490. 16:51:42 T:3852  NOTICE: Trakt Utilities: [Notification Service] Message so far:
  491. 16:51:42 T:3852  NOTICE: Trakt Utilities: [Notification Service] Message so far:
  492. 16:51:42 T:3852  NOTICE: Trakt Utilities: [Notification Service] Message so far:
  493. 16:51:42 T:3852  NOTICE: Trakt Utilities: [Notification Service] Message so far:
  494. 16:51:43 T:3852  NOTICE: Trakt Utilities: [Notification Service] Message so far:
  495. 16:51:43 T:3852  NOTICE: Trakt Utilities: [Notification Service] Message so far:
  496. 16:51:43 T:3852  NOTICE: Trakt Utilities: [Notification Service] Message so far:
  497. 16:51:43 T:3852  NOTICE: Trakt Utilities: [Notification Service] Message so far:
  498. 16:51:43 T:3852  NOTICE: Trakt Utilities: [Notification Service] Message so far:
  499. 16:51:43 T:3852  NOTICE: Trakt Utilities: [NotificationService] ERROR: EOFError
  500. 16:51:44 T:2304  NOTICE: Storing total System Uptime
  501. 16:51:44 T:2304  NOTICE: Saving settings
  502. 16:51:44 T:2304  NOTICE: stop all
  503. 16:51:44 T:2304  NOTICE: ES: Stopping event server
  504. 16:51:44 T:2304  NOTICE: stopping zeroconf publishing
  505. 16:51:44 T:3908  NOTICE: ES: UDP Event server stopped
  506. 16:51:44 T:2304  NOTICE: stop player
  507. 16:51:44 T:2304  NOTICE: CDVDPlayer::CloseFile()
  508. 16:51:44 T:2304  NOTICE: DVDPlayer: waiting for threads to exit
  509. 16:51:44 T:824  NOTICE: CDVDPlayer::OnExit()
  510. 16:51:44 T:824  NOTICE: DVDPlayer: closing audio stream
  511. 16:51:44 T:824  NOTICE: Closing audio stream
  512. 16:51:44 T:824  NOTICE: Waiting for audio thread to exit
  513. 16:51:44 T:4300   ERROR: CDVDAudio::AddPackets - failed to add leftover bytes to render
  514. 16:51:44 T:4300  NOTICE: thread end: CDVDPlayerAudio::OnExit()
  515. 16:51:44 T:824  NOTICE: Closing audio device
  516. 16:51:44 T:824  NOTICE: Deleting audio codec
  517. 16:51:44 T:824  NOTICE: DVDPlayer: closing video stream
  518. 16:51:44 T:824  NOTICE: Closing video stream
  519. 16:51:44 T:824  NOTICE: waiting for video thread to exit
  520. 16:51:44 T:3420  NOTICE: thread end: video_thread
  521. 16:51:44 T:824  NOTICE: deleting video codec
  522. 16:51:44 T:824  NOTICE: CDVDPlayer::OnExit() deleting demuxer
  523. 16:51:44 T:824  NOTICE: CDVDPlayer::OnExit() deleting input stream
  524. 16:51:44 T:2304  NOTICE: DVDPlayer: finished waiting
  525. 16:51:44 T:2304  NOTICE: stop sap announcement listener
  526. 16:51:44 T:2304  NOTICE: clean cached files!
  527. 16:51:44 T:2304  NOTICE: unload skin
  528. 16:51:44 T:4400  NOTICE: StorageServer-0.9.2 Closed down
  529. 16:51:44 T:3852  NOTICE: Trakt Utilities: [Notification Service] Waiting~
  530. 16:51:44 T:3852  NOTICE: Trakt Utilities: [NotificationService] Abort nequested by xbmc
  531. 16:51:44 T:3852  NOTICE: Trakt Utilities: Notification service stopping
  532. 16:51:45 T:1008  NOTICE: Trakt Utilities: Scrobbler stopping
  533. 16:51:45 T:2304  NOTICE: stop python
  534. 16:51:46 T:2304  NOTICE: stopped
  535. 16:51:46 T:2304  NOTICE: destroy
  536. 16:51:46 T:2304  NOTICE: closing down remote control service
  537. 16:51:46 T:2304  NOTICE: unload sections
  538. 16:51:46 T:2304  NOTICE: destroy
  539. 16:51:46 T:2304 WARNING: Attempted to remove window 10013 from the window manager when it didn't exist
  540. 16:51:46 T:2304 WARNING: Attempted to remove window 10014 from the window manager when it didn't exist
  541. 16:51:46 T:2304 WARNING: Attempted to remove window 10015 from the window manager when it didn't exist
  542. 16:51:46 T:2304 WARNING: Attempted to remove window 10016 from the window manager when it didn't exist
  543. 16:51:46 T:2304 WARNING: Attempted to remove window 10017 from the window manager when it didn't exist
  544. 16:51:46 T:2304 WARNING: Attempted to remove window 10018 from the window manager when it didn't exist
  545. 16:51:46 T:2304 WARNING: Attempted to remove window 10019 from the window manager when it didn't exist
  546. 16:51:46 T:2304 WARNING: Attempted to remove window 10107 from the window manager when it didn't exist
  547. 16:51:46 T:2304 WARNING: Attempted to remove window 10115 from the window manager when it didn't exist
  548. 16:51:46 T:2304 WARNING: Attempted to remove window 10104 from the window manager when it didn't exist
  549. 16:51:46 T:2304  NOTICE: closing down remote control service
  550. 16:51:46 T:2304  NOTICE: unload sections
  551. 16:51:46 T:2304  NOTICE: application stopped...
clone this paste RAW Paste Data